sensor_id;sensor_type;location;lat;lon;timestamp;P1;durP1;ratioP1;P2;durP2;ratioP2
7334;SDS011;3708;42.632;23.378;2023-07-31T00:00:58;4.10;;;3.23;;
7334;SDS011;3708;42.632;23.378;2023-07-31T00:03:24;3.20;;;2.90;;
7334;SDS011;3708;42.632;23.378;2023-07-31T00:05:53;4.13;;;3.00;;
7334;SDS011;3708;42.632;23.378;2023-07-31T00:08:20;4.35;;;3.40;;
7334;SDS011;3708;42.632;23.378;2023-07-31T00:10:47;4.45;;;3.38;;
7334;SDS011;3708;42.632;23.378;2023-07-31T00:13:17;4.05;;;3.65;;
7334;SDS011;3708;42.632;23.378;2023-07-31T00:15:46;3.65;;;3.35;;
7334;SDS011;3708;42.632;23.378;2023-07-31T00:18:13;3.60;;;3.30;;
7334;SDS011;3708;42.632;23.378;2023-07-31T00:20:40;3.40;;;3.10;;
7334;SDS011;3708;42.632;23.378;2023-07-31T00:23:08;3.97;;;3.55;;
7334;SDS011;3708;42.632;23.378;2023-07-31T00:25:35;4.15;;;3.45;;
7334;SDS011;3708;42.632;23.378;2023-07-31T00:28:02;4.00;;;3.60;;
7334;SDS011;3708;42.632;23.378;2023-07-31T00:30:29;3.70;;;3.40;;
7334;SDS011;3708;42.632;23.378;2023-07-31T00:32:56;3.80;;;3.50;;
7334;SDS011;3708;42.632;23.378;2023-07-31T00:35:22;4.40;;;3.33;;
7334;SDS011;3708;42.632;23.378;2023-07-31T00:37:49;6.63;;;3.92;;
7334;SDS011;3708;42.632;23.378;2023-07-31T00:40:18;6.25;;;3.40;;
7334;SDS011;3708;42.632;23.378;2023-07-31T00:42:44;4.20;;;3.80;;
7334;SDS011;3708;42.632;23.378;2023-07-31T00:45:11;4.13;;;3.42;;
7334;SDS011;3708;42.632;23.378;2023-07-31T00:47:38;4.40;;;3.58;;
7334;SDS011;3708;42.632;23.378;2023-07-31T00:50:06;5.45;;;4.13;;
7334;SDS011;3708;42.632;23.378;2023-07-31T00:52:34;4.18;;;3.30;;
7334;SDS011;3708;42.632;23.378;2023-07-31T00:55:02;5.50;;;3.67;;
7334;SDS011;3708;42.632;23.378;2023-07-31T00:57:33;4.60;;;4.15;;
7334;SDS011;3708;42.632;23.378;2023-07-31T01:00:03;5.20;;;4.38;;
7334;SDS011;3708;42.632;23.378;2023-07-31T01:02:30;6.50;;;4.47;;
7334;SDS011;3708;42.632;23.378;2023-07-31T01:04:57;4.90;;;4.40;;
7334;SDS011;3708;42.632;23.378;2023-07-31T01:07:26;5.18;;;4.72;;
7334;SDS011;3708;42.632;23.378;2023-07-31T01:10:04;6.50;;;5.13;;
7334;SDS011;3708;42.632;23.378;2023-07-31T01:12:39;5.72;;;5.22;;
7334;SDS011;3708;42.632;23.378;2023-07-31T01:15:07;8.37;;;5.77;;
7334;SDS011;3708;42.632;23.378;2023-07-31T01:17:36;6.33;;;5.83;;
7334;SDS011;3708;42.632;23.378;2023-07-31T01:20:03;7.70;;;6.23;;
7334;SDS011;3708;42.632;23.378;2023-07-31T01:25:53;7.33;;;6.63;;
7334;SDS011;3708;42.632;23.378;2023-07-31T01:28:26;8.73;;;7.93;;
7334;SDS011;3708;42.632;23.378;2023-07-31T01:30:59;8.47;;;7.67;;
7334;SDS011;3708;42.632;23.378;2023-07-31T01:33:28;10.47;;;9.37;;
7334;SDS011;3708;42.632;23.378;2023-07-31T01:35:56;12.90;;;11.70;;
7334;SDS011;3708;42.632;23.378;2023-07-31T01:38:23;12.87;;;11.67;;
7334;SDS011;3708;42.632;23.378;2023-07-31T01:40:51;14.00;;;12.70;;
7334;SDS011;3708;42.632;23.378;2023-07-31T01:43:19;16.03;;;14.47;;
7334;SDS011;3708;42.632;23.378;2023-07-31T01:45:47;17.77;;;15.97;;
7334;SDS011;3708;42.632;23.378;2023-07-31T01:48:13;18.70;;;16.80;;
7334;SDS011;3708;42.632;23.378;2023-07-31T01:50:40;18.97;;;16.97;;
7334;SDS011;3708;42.632;23.378;2023-07-31T01:53:07;20.60;;;18.50;;
7334;SDS011;3708;42.632;23.378;2023-07-31T01:55:34;20.57;;;18.43;;
7334;SDS011;3708;42.632;23.378;2023-07-31T01:58:01;19.97;;;17.93;;
7334;SDS011;3708;42.632;23.378;2023-07-31T02:00:29;21.47;;;19.23;;
7334;SDS011;3708;42.632;23.378;2023-07-31T02:02:56;23.20;;;20.90;;
7334;SDS011;3708;42.632;23.378;2023-07-31T02:05:22;25.10;;;22.50;;
7334;SDS011;3708;42.632;23.378;2023-07-31T02:07:49;23.43;;;20.97;;
7334;SDS011;3708;42.632;23.378;2023-07-31T02:10:16;24.20;;;21.70;;
7334;SDS011;3708;42.632;23.378;2023-07-31T02:12:43;24.63;;;22.03;;
7334;SDS011;3708;42.632;23.378;2023-07-31T02:15:10;22.77;;;20.47;;
7334;SDS011;3708;42.632;23.378;2023-07-31T02:17:38;21.93;;;19.63;;
7334;SDS011;3708;42.632;23.378;2023-07-31T02:20:05;22.67;;;20.30;;
7334;SDS011;3708;42.632;23.378;2023-07-31T02:22:33;24.80;;;20.50;;
7334;SDS011;3708;42.632;23.378;2023-07-31T02:24:59;22.20;;;19.93;;
7334;SDS011;3708;42.632;23.378;2023-07-31T02:27:26;24.53;;;21.90;;
7334;SDS011;3708;42.632;23.378;2023-07-31T02:29:53;22.80;;;20.40;;
7334;SDS011;3708;42.632;23.378;2023-07-31T02:32:20;23.10;;;20.70;;
7334;SDS011;3708;42.632;23.378;2023-07-31T02:34:48;24.10;;;21.70;;
7334;SDS011;3708;42.632;23.378;2023-07-31T02:37:15;22.03;;;19.83;;
7334;SDS011;3708;42.632;23.378;2023-07-31T02:39:42;22.10;;;19.80;;
7334;SDS011;3708;42.632;23.378;2023-07-31T02:42:09;22.83;;;20.43;;
7334;SDS011;3708;42.632;23.378;2023-07-31T02:44:36;23.13;;;20.73;;
7334;SDS011;3708;42.632;23.378;2023-07-31T02:47:03;22.70;;;20.37;;
7334;SDS011;3708;42.632;23.378;2023-07-31T02:49:30;25.17;;;19.67;;
7334;SDS011;3708;42.632;23.378;2023-07-31T02:51:58;22.43;;;20.13;;
7334;SDS011;3708;42.632;23.378;2023-07-31T02:54:25;22.63;;;20.33;;
7334;SDS011;3708;42.632;23.378;2023-07-31T02:56:52;22.43;;;20.07;;
7334;SDS011;3708;42.632;23.378;2023-07-31T02:59:19;22.77;;;20.43;;
7334;SDS011;3708;42.632;23.378;2023-07-31T03:01:46;21.87;;;19.50;;
7334;SDS011;3708;42.632;23.378;2023-07-31T03:04:13;23.33;;;20.93;;
7334;SDS011;3708;42.632;23.378;2023-07-31T03:06:40;22.97;;;20.67;;
7334;SDS011;3708;42.632;23.378;2023-07-31T03:09:08;21.93;;;19.63;;
7334;SDS011;3708;42.632;23.378;2023-07-31T03:11:35;22.10;;;19.70;;
7334;SDS011;3708;42.632;23.378;2023-07-31T03:14:02;22.97;;;19.60;;
7334;SDS011;3708;42.632;23.378;2023-07-31T03:16:29;21.17;;;19.07;;
7334;SDS011;3708;42.632;23.378;2023-07-31T03:18:55;21.50;;;19.27;;
7334;SDS011;3708;42.632;23.378;2023-07-31T03:21:23;21.20;;;18.60;;
7334;SDS011;3708;42.632;23.378;2023-07-31T03:23:49;24.63;;;20.23;;
7334;SDS011;3708;42.632;23.378;2023-07-31T03:26:18;22.60;;;20.23;;
7334;SDS011;3708;42.632;23.378;2023-07-31T03:28:45;22.03;;;19.83;;
7334;SDS011;3708;42.632;23.378;2023-07-31T03:31:11;23.43;;;20.97;;
7334;SDS011;3708;42.632;23.378;2023-07-31T03:33:38;23.53;;;20.90;;
7334;SDS011;3708;42.632;23.378;2023-07-31T03:36:05;20.17;;;18.07;;
7334;SDS011;3708;42.632;23.378;2023-07-31T03:38:33;23.23;;;20.87;;
7334;SDS011;3708;42.632;23.378;2023-07-31T03:41:00;25.20;;;19.97;;
7334;SDS011;3708;42.632;23.378;2023-07-31T03:43:28;22.03;;;19.73;;
7334;SDS011;3708;42.632;23.378;2023-07-31T03:45:55;23.03;;;20.73;;
7334;SDS011;3708;42.632;23.378;2023-07-31T03:48:22;23.13;;;20.70;;
7334;SDS011;3708;42.632;23.378;2023-07-31T03:50:49;22.77;;;20.47;;
7334;SDS011;3708;42.632;23.378;2023-07-31T03:53:16;25.53;;;21.00;;
7334;SDS011;3708;42.632;23.378;2023-07-31T03:55:43;25.70;;;19.90;;
7334;SDS011;3708;42.632;23.378;2023-07-31T03:58:09;24.60;;;20.97;;
7334;SDS011;3708;42.632;23.378;2023-07-31T04:00:39;21.07;;;18.47;;
7334;SDS011;3708;42.632;23.378;2023-07-31T04:03:06;24.60;;;21.53;;
7334;SDS011;3708;42.632;23.378;2023-07-31T04:05:33;23.60;;;19.77;;
7334;SDS011;3708;42.632;23.378;2023-07-31T04:08:05;22.73;;;20.43;;
7334;SDS011;3708;42.632;23.378;2023-07-31T04:10:35;23.87;;;21.17;;
7334;SDS011;3708;42.632;23.378;2023-07-31T04:13:06;23.10;;;20.67;;
7334;SDS011;3708;42.632;23.378;2023-07-31T04:15:33;23.23;;;20.93;;
7334;SDS011;3708;42.632;23.378;2023-07-31T04:18:01;22.33;;;19.87;;
7334;SDS011;3708;42.632;23.378;2023-07-31T04:20:28;24.90;;;22.07;;
7334;SDS011;3708;42.632;23.378;2023-07-31T04:22:56;24.40;;;21.80;;
7334;SDS011;3708;42.632;23.378;2023-07-31T04:25:23;22.63;;;20.23;;
7334;SDS011;3708;42.632;23.378;2023-07-31T04:27:50;22.50;;;20.17;;
7334;SDS011;3708;42.632;23.378;2023-07-31T04:30:17;24.53;;;21.93;;
7334;SDS011;3708;42.632;23.378;2023-07-31T04:32:44;26.30;;;21.93;;
7334;SDS011;3708;42.632;23.378;2023-07-31T04:35:12;23.00;;;20.40;;
7334;SDS011;3708;42.632;23.378;2023-07-31T04:37:39;24.53;;;21.87;;
7334;SDS011;3708;42.632;23.378;2023-07-31T04:40:07;22.90;;;20.03;;
7334;SDS011;3708;42.632;23.378;2023-07-31T04:42:37;22.13;;;18.63;;
7334;SDS011;3708;42.632;23.378;2023-07-31T04:45:17;20.53;;;18.30;;
7334;SDS011;3708;42.632;23.378;2023-07-31T04:47:44;20.63;;;18.43;;
7334;SDS011;3708;42.632;23.378;2023-07-31T04:50:18;20.00;;;17.07;;
7334;SDS011;3708;42.632;23.378;2023-07-31T04:52:49;20.50;;;18.30;;
7334;SDS011;3708;42.632;23.378;2023-07-31T04:55:17;19.70;;;16.50;;
7334;SDS011;3708;42.632;23.378;2023-07-31T04:57:44;17.87;;;15.93;;
7334;SDS011;3708;42.632;23.378;2023-07-31T05:00:11;16.67;;;14.67;;
7334;SDS011;3708;42.632;23.378;2023-07-31T05:02:38;18.50;;;16.47;;
7334;SDS011;3708;42.632;23.378;2023-07-31T05:05:05;20.23;;;17.00;;
7334;SDS011;3708;42.632;23.378;2023-07-31T05:07:34;19.70;;;17.70;;
7334;SDS011;3708;42.632;23.378;2023-07-31T05:10:02;18.43;;;16.53;;
7334;SDS011;3708;42.632;23.378;2023-07-31T05:12:29;18.88;;;16.25;;
7334;SDS011;3708;42.632;23.378;2023-07-31T05:15:00;18.42;;;16.55;;
7334;SDS011;3708;42.632;23.378;2023-07-31T05:17:27;19.27;;;17.27;;
7334;SDS011;3708;42.632;23.378;2023-07-31T05:19:54;22.03;;;17.67;;
7334;SDS011;3708;42.632;23.378;2023-07-31T05:22:21;18.23;;;16.07;;
7334;SDS011;3708;42.632;23.378;2023-07-31T05:24:49;20.23;;;16.93;;
7334;SDS011;3708;42.632;23.378;2023-07-31T05:27:16;18.63;;;16.63;;
7334;SDS011;3708;42.632;23.378;2023-07-31T05:29:44;18.63;;;16.73;;
7334;SDS011;3708;42.632;23.378;2023-07-31T05:32:11;18.75;;;15.85;;
7334;SDS011;3708;42.632;23.378;2023-07-31T05:34:40;18.38;;;16.10;;
7334;SDS011;3708;42.632;23.378;2023-07-31T05:37:09;16.85;;;15.18;;
7334;SDS011;3708;42.632;23.378;2023-07-31T05:39:36;16.50;;;14.85;;
7334;SDS011;3708;42.632;23.378;2023-07-31T05:42:05;15.03;;;13.43;;
7334;SDS011;3708;42.632;23.378;2023-07-31T05:44:32;15.27;;;12.93;;
7334;SDS011;3708;42.632;23.378;2023-07-31T05:46:59;17.23;;;13.88;;
7334;SDS011;3708;42.632;23.378;2023-07-31T05:49:25;13.70;;;12.40;;
7334;SDS011;3708;42.632;23.378;2023-07-31T05:51:52;12.93;;;11.27;;
7334;SDS011;3708;42.632;23.378;2023-07-31T05:54:19;14.60;;;11.07;;
7334;SDS011;3708;42.632;23.378;2023-07-31T05:56:46;12.07;;;10.70;;
7334;SDS011;3708;42.632;23.378;2023-07-31T05:59:15;12.02;;;9.75;;
7334;SDS011;3708;42.632;23.378;2023-07-31T06:01:42;8.83;;;7.83;;
7334;SDS011;3708;42.632;23.378;2023-07-31T06:04:09;9.00;;;8.02;;
7334;SDS011;3708;42.632;23.378;2023-07-31T06:06:36;10.70;;;8.07;;
7334;SDS011;3708;42.632;23.378;2023-07-31T06:09:03;8.52;;;7.65;;
7334;SDS011;3708;42.632;23.378;2023-07-31T06:11:30;8.67;;;7.83;;
7334;SDS011;3708;42.632;23.378;2023-07-31T06:13:57;7.97;;;7.18;;
7334;SDS011;3708;42.632;23.378;2023-07-31T06:16:25;7.75;;;7.05;;
7334;SDS011;3708;42.632;23.378;2023-07-31T06:18:52;6.93;;;6.32;;
7334;SDS011;3708;42.632;23.378;2023-07-31T06:21:19;6.75;;;6.07;;
7334;SDS011;3708;42.632;23.378;2023-07-31T06:23:46;7.97;;;5.93;;
7334;SDS011;3708;42.632;23.378;2023-07-31T06:26:13;6.93;;;6.25;;
7334;SDS011;3708;42.632;23.378;2023-07-31T06:28:40;6.03;;;5.00;;
7334;SDS011;3708;42.632;23.378;2023-07-31T06:31:06;6.15;;;5.50;;
7334;SDS011;3708;42.632;23.378;2023-07-31T06:33:35;4.68;;;4.18;;
7334;SDS011;3708;42.632;23.378;2023-07-31T06:36:02;6.97;;;4.68;;
7334;SDS011;3708;42.632;23.378;2023-07-31T06:38:28;8.77;;;4.10;;
7334;SDS011;3708;42.632;23.378;2023-07-31T06:40:55;4.53;;;4.13;;
7334;SDS011;3708;42.632;23.378;2023-07-31T06:43:22;4.72;;;4.10;;
7334;SDS011;3708;42.632;23.378;2023-07-31T06:45:49;4.97;;;4.28;;
7334;SDS011;3708;42.632;23.378;2023-07-31T06:48:16;5.97;;;4.15;;
7334;SDS011;3708;42.632;23.378;2023-07-31T06:50:45;6.40;;;4.00;;
7334;SDS011;3708;42.632;23.378;2023-07-31T06:53:13;6.00;;;4.38;;
7334;SDS011;3708;42.632;23.378;2023-07-31T06:55:40;5.35;;;4.40;;
7334;SDS011;3708;42.632;23.378;2023-07-31T06:58:07;5.32;;;4.65;;
7334;SDS011;3708;42.632;23.378;2023-07-31T07:00:33;4.30;;;3.92;;
7334;SDS011;3708;42.632;23.378;2023-07-31T07:03:00;4.65;;;4.25;;
7334;SDS011;3708;42.632;23.378;2023-07-31T07:05:27;8.30;;;4.20;;
7334;SDS011;3708;42.632;23.378;2023-07-31T07:07:55;4.30;;;3.90;;
7334;SDS011;3708;42.632;23.378;2023-07-31T07:10:22;4.45;;;3.83;;
7334;SDS011;3708;42.632;23.378;2023-07-31T07:12:49;4.45;;;3.78;;
7334;SDS011;3708;42.632;23.378;2023-07-31T07:15:16;4.18;;;3.78;;
7334;SDS011;3708;42.632;23.378;2023-07-31T07:17:43;6.07;;;4.00;;
7334;SDS011;3708;42.632;23.378;2023-07-31T07:20:09;7.15;;;3.95;;
7334;SDS011;3708;42.632;23.378;2023-07-31T07:22:37;3.95;;;3.47;;
7334;SDS011;3708;42.632;23.378;2023-07-31T07:25:06;4.00;;;3.60;;
7334;SDS011;3708;42.632;23.378;2023-07-31T07:27:33;4.97;;;3.53;;
7334;SDS011;3708;42.632;23.378;2023-07-31T07:30:01;5.07;;;3.60;;
7334;SDS011;3708;42.632;23.378;2023-07-31T07:32:28;3.75;;;3.45;;
7334;SDS011;3708;42.632;23.378;2023-07-31T07:34:55;4.40;;;3.58;;
7334;SDS011;3708;42.632;23.378;2023-07-31T07:37:22;3.63;;;3.00;;
7334;SDS011;3708;42.632;23.378;2023-07-31T07:39:49;4.63;;;3.00;;
7334;SDS011;3708;42.632;23.378;2023-07-31T07:42:18;7.13;;;3.10;;
7334;SDS011;3708;42.632;23.378;2023-07-31T07:44:45;4.22;;;3.17;;
7334;SDS011;3708;42.632;23.378;2023-07-31T07:47:12;3.70;;;3.30;;
7334;SDS011;3708;42.632;23.378;2023-07-31T07:49:39;3.80;;;3.08;;
7334;SDS011;3708;42.632;23.378;2023-07-31T07:52:07;3.42;;;3.10;;
7334;SDS011;3708;42.632;23.378;2023-07-31T07:54:34;3.38;;;3.03;;
7334;SDS011;3708;42.632;23.378;2023-07-31T07:57:01;3.50;;;3.00;;
7334;SDS011;3708;42.632;23.378;2023-07-31T07:59:31;3.55;;;3.22;;
7334;SDS011;3708;42.632;23.378;2023-07-31T08:02:04;4.10;;;3.70;;
7334;SDS011;3708;42.632;23.378;2023-07-31T08:04:45;3.42;;;3.10;;
7334;SDS011;3708;42.632;23.378;2023-07-31T08:07:17;5.13;;;3.17;;
7334;SDS011;3708;42.632;23.378;2023-07-31T08:09:46;3.10;;;2.80;;
7334;SDS011;3708;42.632;23.378;2023-07-31T08:12:14;3.58;;;2.80;;
7334;SDS011;3708;42.632;23.378;2023-07-31T08:14:42;5.22;;;2.83;;
7334;SDS011;3708;42.632;23.378;2023-07-31T08:17:09;3.25;;;2.53;;
7334;SDS011;3708;42.632;23.378;2023-07-31T08:19:36;5.10;;;2.85;;
7334;SDS011;3708;42.632;23.378;2023-07-31T08:22:03;3.08;;;2.65;;
7334;SDS011;3708;42.632;23.378;2023-07-31T08:24:30;4.63;;;2.85;;
7334;SDS011;3708;42.632;23.378;2023-07-31T08:26:57;2.97;;;2.55;;
7334;SDS011;3708;42.632;23.378;2023-07-31T08:29:24;2.97;;;2.67;;
7334;SDS011;3708;42.632;23.378;2023-07-31T08:31:53;2.95;;;2.65;;
7334;SDS011;3708;42.632;23.378;2023-07-31T08:34:20;3.58;;;2.95;;
7334;SDS011;3708;42.632;23.378;2023-07-31T08:36:49;3.83;;;2.80;;
7334;SDS011;3708;42.632;23.378;2023-07-31T08:39:16;3.03;;;2.72;;
7334;SDS011;3708;42.632;23.378;2023-07-31T08:41:43;3.63;;;2.85;;
7334;SDS011;3708;42.632;23.378;2023-07-31T08:44:10;3.08;;;2.70;;
7334;SDS011;3708;42.632;23.378;2023-07-31T08:46:40;2.67;;;2.45;;
7334;SDS011;3708;42.632;23.378;2023-07-31T08:49:09;3.45;;;3.00;;
7334;SDS011;3708;42.632;23.378;2023-07-31T08:51:37;5.55;;;2.95;;
7334;SDS011;3708;42.632;23.378;2023-07-31T08:54:04;4.60;;;2.83;;
7334;SDS011;3708;42.632;23.378;2023-07-31T08:56:31;5.47;;;3.33;;
7334;SDS011;3708;42.632;23.378;2023-07-31T08:59:16;3.13;;;2.60;;
7334;SDS011;3708;42.632;23.378;2023-07-31T09:01:47;3.05;;;2.75;;
7334;SDS011;3708;42.632;23.378;2023-07-31T09:08:10;3.88;;;2.70;;
7334;SDS011;3708;42.632;23.378;2023-07-31T09:10:40;4.45;;;2.78;;
7334;SDS011;3708;42.632;23.378;2023-07-31T09:13:07;3.55;;;2.65;;
7334;SDS011;3708;42.632;23.378;2023-07-31T09:15:35;4.15;;;2.70;;
7334;SDS011;3708;42.632;23.378;2023-07-31T09:18:02;2.92;;;2.63;;
7334;SDS011;3708;42.632;23.378;2023-07-31T09:20:34;3.08;;;2.80;;
7334;SDS011;3708;42.632;23.378;2023-07-31T09:23:06;3.25;;;2.47;;
7334;SDS011;3708;42.632;23.378;2023-07-31T09:25:34;2.88;;;2.45;;
7334;SDS011;3708;42.632;23.378;2023-07-31T09:28:02;2.35;;;2.15;;
7334;SDS011;3708;42.632;23.378;2023-07-31T09:30:30;2.53;;;2.33;;
7334;SDS011;3708;42.632;23.378;2023-07-31T09:33:01;2.83;;;2.38;;
7334;SDS011;3708;42.632;23.378;2023-07-31T09:35:29;3.58;;;3.05;;
7334;SDS011;3708;42.632;23.378;2023-07-31T09:37:59;2.75;;;2.55;;
7334;SDS011;3708;42.632;23.378;2023-07-31T09:40:38;4.50;;;2.70;;
7334;SDS011;3708;42.632;23.378;2023-07-31T09:43:19;5.22;;;3.13;;
7334;SDS011;3708;42.632;23.378;2023-07-31T09:45:47;2.65;;;2.45;;
7334;SDS011;3708;42.632;23.378;2023-07-31T09:48:15;5.13;;;4.00;;
7334;SDS011;3708;42.632;23.378;2023-07-31T09:50:44;9.90;;;5.82;;
7334;SDS011;3708;42.632;23.378;2023-07-31T09:53:13;3.60;;;3.30;;
7334;SDS011;3708;42.632;23.378;2023-07-31T09:55:41;5.78;;;3.00;;
7334;SDS011;3708;42.632;23.378;2023-07-31T09:58:09;3.47;;;3.17;;
7334;SDS011;3708;42.632;23.378;2023-07-31T10:00:37;3.47;;;3.03;;
7334;SDS011;3708;42.632;23.378;2023-07-31T10:03:05;3.83;;;3.22;;
7334;SDS011;3708;42.632;23.378;2023-07-31T10:05:34;6.03;;;3.63;;
7334;SDS011;3708;42.632;23.378;2023-07-31T10:08:02;3.25;;;2.95;;
7334;SDS011;3708;42.632;23.378;2023-07-31T10:10:31;3.53;;;3.10;;
7334;SDS011;3708;42.632;23.378;2023-07-31T10:13:01;2.55;;;2.28;;
7334;SDS011;3708;42.632;23.378;2023-07-31T10:15:28;8.25;;;2.80;;
7334;SDS011;3708;42.632;23.378;2023-07-31T10:17:56;3.40;;;2.60;;
7334;SDS011;3708;42.632;23.378;2023-07-31T10:20:24;4.07;;;2.33;;
7334;SDS011;3708;42.632;23.378;2023-07-31T10:22:53;3.50;;;2.60;;
7334;SDS011;3708;42.632;23.378;2023-07-31T10:25:21;3.70;;;2.63;;
7334;SDS011;3708;42.632;23.378;2023-07-31T10:27:50;4.47;;;2.28;;
7334;SDS011;3708;42.632;23.378;2023-07-31T10:30:22;3.55;;;2.25;;
7334;SDS011;3708;42.632;23.378;2023-07-31T10:32:52;4.05;;;2.20;;
7334;SDS011;3708;42.632;23.378;2023-07-31T10:35:20;5.28;;;2.05;;
7334;SDS011;3708;42.632;23.378;2023-07-31T10:37:48;2.83;;;2.33;;
7334;SDS011;3708;42.632;23.378;2023-07-31T10:40:16;3.65;;;2.35;;
7334;SDS011;3708;42.632;23.378;2023-07-31T10:42:45;2.50;;;2.30;;
7334;SDS011;3708;42.632;23.378;2023-07-31T10:45:23;4.15;;;2.63;;
7334;SDS011;3708;42.632;23.378;2023-07-31T10:47:57;2.45;;;2.25;;
7334;SDS011;3708;42.632;23.378;2023-07-31T10:50:27;2.72;;;2.20;;
7334;SDS011;3708;42.632;23.378;2023-07-31T10:53:03;2.95;;;2.30;;
7334;SDS011;3708;42.632;23.378;2023-07-31T10:55:32;3.38;;;2.42;;
7334;SDS011;3708;42.632;23.378;2023-07-31T10:58:05;2.85;;;2.08;;
7334;SDS011;3708;42.632;23.378;2023-07-31T11:00:36;5.32;;;2.58;;
7334;SDS011;3708;42.632;23.378;2023-07-31T11:03:04;3.25;;;2.17;;
7334;SDS011;3708;42.632;23.378;2023-07-31T11:08:30;3.95;;;2.20;;
7334;SDS011;3708;42.632;23.378;2023-07-31T11:11:07;3.20;;;1.90;;
7334;SDS011;3708;42.632;23.378;2023-07-31T11:13:39;1.90;;;1.73;;
7334;SDS011;3708;42.632;23.378;2023-07-31T11:16:09;2.22;;;1.95;;
7334;SDS011;3708;42.632;23.378;2023-07-31T11:18:38;3.25;;;2.05;;
7334;SDS011;3708;42.632;23.378;2023-07-31T11:21:06;2.15;;;1.95;;
7334;SDS011;3708;42.632;23.378;2023-07-31T11:23:33;2.15;;;1.95;;
7334;SDS011;3708;42.632;23.378;2023-07-31T11:26:00;2.33;;;2.08;;
7334;SDS011;3708;42.632;23.378;2023-07-31T11:28:30;2.03;;;1.83;;
7334;SDS011;3708;42.632;23.378;2023-07-31T11:30:59;4.13;;;2.13;;
7334;SDS011;3708;42.632;23.378;2023-07-31T11:33:28;3.10;;;2.28;;
7334;SDS011;3708;42.632;23.378;2023-07-31T11:35:55;1.73;;;1.60;;
7334;SDS011;3708;42.632;23.378;2023-07-31T11:38:22;2.90;;;2.00;;
7334;SDS011;3708;42.632;23.378;2023-07-31T11:40:50;1.80;;;1.70;;
7334;SDS011;3708;42.632;23.378;2023-07-31T11:43:18;3.95;;;2.30;;
7334;SDS011;3708;42.632;23.378;2023-07-31T11:45:46;4.95;;;2.25;;
7334;SDS011;3708;42.632;23.378;2023-07-31T11:52:08;3.08;;;1.70;;
7334;SDS011;3708;42.632;23.378;2023-07-31T11:54:47;4.80;;;1.98;;
7334;SDS011;3708;42.632;23.378;2023-07-31T11:58:01;3.17;;;2.40;;
7334;SDS011;3708;42.632;23.378;2023-07-31T12:00:43;2.53;;;2.33;;
7334;SDS011;3708;42.632;23.378;2023-07-31T12:03:12;4.32;;;2.50;;
7334;SDS011;3708;42.632;23.378;2023-07-31T12:05:53;5.15;;;2.30;;
7334;SDS011;3708;42.632;23.378;2023-07-31T12:08:34;4.13;;;2.00;;
7334;SDS011;3708;42.632;23.378;2023-07-31T12:11:18;3.17;;;2.28;;
7334;SDS011;3708;42.632;23.378;2023-07-31T12:13:51;2.83;;;2.50;;
7334;SDS011;3708;42.632;23.378;2023-07-31T12:16:25;2.50;;;2.10;;
7334;SDS011;3708;42.632;23.378;2023-07-31T12:19:05;3.72;;;2.22;;
7334;SDS011;3708;42.632;23.378;2023-07-31T12:21:33;2.97;;;2.15;;
7334;SDS011;3708;42.632;23.378;2023-07-31T12:24:03;2.83;;;2.30;;
7334;SDS011;3708;42.632;23.378;2023-07-31T12:26:33;5.05;;;2.75;;
7334;SDS011;3708;42.632;23.378;2023-07-31T12:29:01;3.08;;;2.63;;
7334;SDS011;3708;42.632;23.378;2023-07-31T12:31:28;3.58;;;2.72;;
7334;SDS011;3708;42.632;23.378;2023-07-31T12:33:55;3.25;;;2.88;;
7334;SDS011;3708;42.632;23.378;2023-07-31T12:36:23;5.25;;;2.97;;
7334;SDS011;3708;42.632;23.378;2023-07-31T12:38:50;5.07;;;3.90;;
7334;SDS011;3708;42.632;23.378;2023-07-31T12:41:19;4.05;;;3.65;;
7334;SDS011;3708;42.632;23.378;2023-07-31T12:43:46;5.50;;;4.43;;
7334;SDS011;3708;42.632;23.378;2023-07-31T12:46:13;5.65;;;3.95;;
7334;SDS011;3708;42.632;23.378;2023-07-31T12:48:41;5.07;;;4.47;;
7334;SDS011;3708;42.632;23.378;2023-07-31T12:51:07;4.40;;;3.97;;
7334;SDS011;3708;42.632;23.378;2023-07-31T12:53:34;4.50;;;4.10;;
7334;SDS011;3708;42.632;23.378;2023-07-31T12:56:02;3.60;;;3.30;;
7334;SDS011;3708;42.632;23.378;2023-07-31T12:58:30;4.15;;;3.75;;
7334;SDS011;3708;42.632;23.378;2023-07-31T13:00:57;4.93;;;3.30;;
7334;SDS011;3708;42.632;23.378;2023-07-31T13:03:24;4.05;;;3.65;;
7334;SDS011;3708;42.632;23.378;2023-07-31T13:05:50;4.25;;;3.53;;
7334;SDS011;3708;42.632;23.378;2023-07-31T13:08:18;4.32;;;3.92;;
7334;SDS011;3708;42.632;23.378;2023-07-31T13:10:45;7.55;;;4.10;;
7334;SDS011;3708;42.632;23.378;2023-07-31T13:13:12;5.40;;;4.90;;
7334;SDS011;3708;42.632;23.378;2023-07-31T13:15:40;4.80;;;4.40;;
7334;SDS011;3708;42.632;23.378;2023-07-31T13:18:08;5.03;;;4.47;;
7334;SDS011;3708;42.632;23.378;2023-07-31T13:20:34;4.47;;;4.07;;
7334;SDS011;3708;42.632;23.378;2023-07-31T13:23:07;6.10;;;4.68;;
7334;SDS011;3708;42.632;23.378;2023-07-31T13:25:33;6.65;;;4.75;;
7334;SDS011;3708;42.632;23.378;2023-07-31T13:28:00;5.05;;;4.55;;
7334;SDS011;3708;42.632;23.378;2023-07-31T13:30:27;5.25;;;4.47;;
7334;SDS011;3708;42.632;23.378;2023-07-31T13:32:55;6.43;;;4.70;;
7334;SDS011;3708;42.632;23.378;2023-07-31T13:35:22;5.00;;;4.30;;
7334;SDS011;3708;42.632;23.378;2023-07-31T13:37:49;7.97;;;4.65;;
7334;SDS011;3708;42.632;23.378;2023-07-31T13:41:01;4.15;;;3.50;;
7334;SDS011;3708;42.632;23.378;2023-07-31T13:43:27;5.00;;;3.60;;
7334;SDS011;3708;42.632;23.378;2023-07-31T13:45:54;5.55;;;3.75;;
7334;SDS011;3708;42.632;23.378;2023-07-31T13:48:22;4.55;;;3.60;;
7334;SDS011;3708;42.632;23.378;2023-07-31T13:53:53;3.70;;;3.30;;
7334;SDS011;3708;42.632;23.378;2023-07-31T13:56:20;5.10;;;3.88;;
7334;SDS011;3708;42.632;23.378;2023-07-31T13:58:51;5.50;;;3.20;;
7334;SDS011;3708;42.632;23.378;2023-07-31T14:01:17;4.28;;;3.47;;
7334;SDS011;3708;42.632;23.378;2023-07-31T14:03:46;4.15;;;3.75;;
7334;SDS011;3708;42.632;23.378;2023-07-31T14:06:13;4.15;;;3.75;;
7334;SDS011;3708;42.632;23.378;2023-07-31T14:08:42;4.10;;;3.70;;
7334;SDS011;3708;42.632;23.378;2023-07-31T14:11:09;4.53;;;3.30;;
7334;SDS011;3708;42.632;23.378;2023-07-31T14:13:36;6.03;;;3.60;;
7334;SDS011;3708;42.632;23.378;2023-07-31T14:16:13;4.55;;;3.28;;
7334;SDS011;3708;42.632;23.378;2023-07-31T14:18:40;4.47;;;3.17;;
7334;SDS011;3708;42.632;23.378;2023-07-31T14:21:10;3.70;;;3.38;;
7334;SDS011;3708;42.632;23.378;2023-07-31T14:23:39;4.57;;;3.60;;
7334;SDS011;3708;42.632;23.378;2023-07-31T14:26:07;4.20;;;3.75;;
7334;SDS011;3708;42.632;23.378;2023-07-31T14:28:34;6.45;;;4.00;;
7334;SDS011;3708;42.632;23.378;2023-07-31T14:31:02;5.65;;;3.83;;
7334;SDS011;3708;42.632;23.378;2023-07-31T14:33:32;5.53;;;3.88;;
7334;SDS011;3708;42.632;23.378;2023-07-31T14:36:02;3.97;;;3.58;;
7334;SDS011;3708;42.632;23.378;2023-07-31T14:38:31;3.60;;;3.30;;
7334;SDS011;3708;42.632;23.378;2023-07-31T14:40:58;3.75;;;3.40;;
7334;SDS011;3708;42.632;23.378;2023-07-31T14:43:25;4.18;;;3.78;;
7334;SDS011;3708;42.632;23.378;2023-07-31T14:45:52;5.60;;;3.50;;
7334;SDS011;3708;42.632;23.378;2023-07-31T14:48:21;4.40;;;4.00;;
7334;SDS011;3708;42.632;23.378;2023-07-31T14:50:48;3.78;;;3.25;;
7334;SDS011;3708;42.632;23.378;2023-07-31T14:53:14;6.13;;;3.88;;
7334;SDS011;3708;42.632;23.378;2023-07-31T14:55:45;5.15;;;3.03;;
7334;SDS011;3708;42.632;23.378;2023-07-31T14:58:12;4.70;;;3.83;;
7334;SDS011;3708;42.632;23.378;2023-07-31T15:00:43;3.97;;;3.35;;
7334;SDS011;3708;42.632;23.378;2023-07-31T15:03:18;5.53;;;3.78;;
7334;SDS011;3708;42.632;23.378;2023-07-31T15:05:46;4.18;;;3.30;;
7334;SDS011;3708;42.632;23.378;2023-07-31T15:11:41;9.88;;;3.47;;
7334;SDS011;3708;42.632;23.378;2023-07-31T15:14:10;3.90;;;3.50;;
7334;SDS011;3708;42.632;23.378;2023-07-31T15:16:37;3.33;;;3.03;;
7334;SDS011;3708;42.632;23.378;2023-07-31T15:19:04;5.68;;;3.42;;
7334;SDS011;3708;42.632;23.378;2023-07-31T15:21:31;4.03;;;3.38;;